createdAt,value
2023-01-10T00:00:35.499Z,3.20
2023-01-10T00:03:05.944Z,1.90
2023-01-10T00:05:33.084Z,2.43
2023-01-10T00:08:03.774Z,4.57
2023-01-10T00:10:31.575Z,3.30
2023-01-10T00:13:17.980Z,1.93
2023-01-10T00:15:45.223Z,3.63
2023-01-10T00:18:12.673Z,2.80
2023-01-10T00:20:40.601Z,1.87
2023-01-10T00:23:07.774Z,1.90
2023-01-10T00:25:36.179Z,1.90
2023-01-10T00:28:23.769Z,3.20
2023-01-10T00:31:01.317Z,1.60
2023-01-10T00:33:32.191Z,1.50
2023-01-10T00:36:00.174Z,1.40
2023-01-10T00:38:27.360Z,1.50
2023-01-10T00:40:54.720Z,1.20
2023-01-10T00:43:40.624Z,3.43
2023-01-10T00:46:08.677Z,1.40
2023-01-10T00:48:36.074Z,1.10
2023-01-10T00:51:03.783Z,1.70
2023-01-10T00:53:31.070Z,1.97
2023-01-10T00:55:58.296Z,1.27
2023-01-10T00:58:25.407Z,1.80
2023-01-10T01:00:53.125Z,1.20
2023-01-10T01:03:23.118Z,1.80
2023-01-10T01:05:50.779Z,1.20
2023-01-10T01:08:18.521Z,1.27
2023-01-10T01:10:45.998Z,1.30
2023-01-10T01:13:20.496Z,1.10
2023-01-10T01:15:48.301Z,1.20
2023-01-10T01:18:20.898Z,1.30
2023-01-10T01:20:48.546Z,1.60
2023-01-10T01:23:16.077Z,1.33
2023-01-10T01:25:43.246Z,1.30
2023-01-10T01:28:12.924Z,1.40
2023-01-10T01:30:40.234Z,1.27
2023-01-10T01:33:08.064Z,1.30
2023-01-10T01:35:36.500Z,1.40
2023-01-10T01:38:03.865Z,1.50
2023-01-10T01:40:31.077Z,3.03
2023-01-10T01:42:58.229Z,1.57
2023-01-10T01:45:25.418Z,1.40
2023-01-10T01:48:12.035Z,1.60
2023-01-10T01:50:45.308Z,1.70
2023-01-10T01:53:33.312Z,1.70
2023-01-10T01:56:02.381Z,1.40
2023-01-10T01:58:34.621Z,1.80
2023-01-10T02:01:02.012Z,1.70
2023-01-10T02:03:29.837Z,1.60
2023-01-10T02:05:57.054Z,1.40
2023-01-10T02:08:24.232Z,1.43
2023-01-10T02:10:57.430Z,1.57
2023-01-10T02:13:26.313Z,1.60
2023-01-10T02:15:53.626Z,1.43
2023-01-10T02:18:21.511Z,1.50
2023-01-10T02:20:51.860Z,1.40
2023-01-10T02:23:31.419Z,1.40
2023-01-10T02:26:28.791Z,1.40
2023-01-10T02:29:02.014Z,1.40
2023-01-10T02:31:45.836Z,1.60
2023-01-10T02:34:16.112Z,2.10
2023-01-10T02:36:55.355Z,1.50
2023-01-10T02:39:23.251Z,2.43
2023-01-10T02:41:53.319Z,1.30
2023-01-10T02:44:25.679Z,1.27
2023-01-10T02:46:52.789Z,1.40
2023-01-10T02:49:20.427Z,5.60
2023-01-10T02:51:47.583Z,1.17
2023-01-10T02:54:19.933Z,2.00
2023-01-10T02:57:05.946Z,1.23
2023-01-10T02:59:43.040Z,1.30
2023-01-10T03:02:13.774Z,1.30
2023-01-10T03:04:46.797Z,3.37
2023-01-10T03:07:37.004Z,1.97
2023-01-10T03:10:14.907Z,2.47
2023-01-10T03:13:17.406Z,1.60
2023-01-10T03:15:45.598Z,1.40
2023-01-10T03:18:14.929Z,1.70
2023-01-10T03:20:44.833Z,1.40
2023-01-10T03:23:13.399Z,1.40
2023-01-10T03:25:40.941Z,1.20
2023-01-10T03:28:11.686Z,1.30
2023-01-10T03:30:51.746Z,1.10
2023-01-10T03:33:21.984Z,1.17
2023-01-10T03:35:57.567Z,1.10
2023-01-10T03:38:36.079Z,1.00
2023-01-10T03:41:12.473Z,1.20
2023-01-10T03:44:17.191Z,1.50
2023-01-10T03:46:51.450Z,1.60
2023-01-10T03:49:19.672Z,1.30
2023-01-10T03:51:47.240Z,3.03
2023-01-10T03:54:16.889Z,4.00
2023-01-10T03:56:50.951Z,1.43
2023-01-10T03:59:21.087Z,1.20
2023-01-10T04:01:48.438Z,1.10
2023-01-10T04:04:16.160Z,1.60
2023-01-10T04:06:43.538Z,1.30
2023-01-10T04:09:10.947Z,1.30
2023-01-10T04:11:38.377Z,1.27
2023-01-10T04:14:06.128Z,1.33
2023-01-10T04:16:33.465Z,1.60
2023-01-10T04:19:01.168Z,1.57
2023-01-10T04:21:28.426Z,1.80
2023-01-10T04:23:56.116Z,1.70
2023-01-10T04:26:23.441Z,1.90
2023-01-10T04:28:50.677Z,1.80
2023-01-10T04:31:18.800Z,2.43
2023-01-10T04:33:46.170Z,2.33
2023-01-10T04:36:13.526Z,2.70
2023-01-10T04:38:40.795Z,2.60
2023-01-10T04:41:08.036Z,2.47
2023-01-10T04:43:35.756Z,2.40
2023-01-10T04:46:03.414Z,2.37
2023-01-10T04:48:30.676Z,2.40
2023-01-10T04:50:59.541Z,2.10
2023-01-10T04:53:26.930Z,2.77
2023-01-10T04:55:54.205Z,3.17
2023-01-10T04:58:21.538Z,2.97
2023-01-10T05:00:48.851Z,3.33
2023-01-10T05:03:20.275Z,3.10
2023-01-10T05:05:48.225Z,3.10
2023-01-10T05:08:15.504Z,3.10
2023-01-10T05:10:42.785Z,4.67
2023-01-10T05:13:10.122Z,3.33
2023-01-10T05:15:37.729Z,3.23
2023-01-10T05:18:05.011Z,3.30
2023-01-10T05:20:32.279Z,3.40
2023-01-10T05:22:59.552Z,3.03
2023-01-10T05:25:26.814Z,3.30
2023-01-10T05:27:54.231Z,3.63
2023-01-10T05:30:21.605Z,3.43
2023-01-10T05:32:48.940Z,4.23
2023-01-10T05:35:17.628Z,4.70
2023-01-10T05:37:45.731Z,4.70
2023-01-10T05:40:13.195Z,4.07
2023-01-10T05:42:40.627Z,3.37
2023-01-10T05:45:08.454Z,3.10
2023-01-10T05:47:35.741Z,3.03
2023-01-10T05:50:02.971Z,3.53
2023-01-10T05:52:30.261Z,3.30
2023-01-10T05:54:57.716Z,3.63
2023-01-10T05:57:25.019Z,3.00
2023-01-10T05:59:52.582Z,2.97
2023-01-10T06:02:19.922Z,3.47
2023-01-10T06:04:47.243Z,4.20
2023-01-10T06:07:14.556Z,3.03
2023-01-10T06:09:41.940Z,3.20
2023-01-10T06:12:09.482Z,3.10
2023-01-10T06:14:36.788Z,2.93
2023-01-10T06:17:08.597Z,2.90
2023-01-10T06:19:35.794Z,7.37
2023-01-10T06:22:04.241Z,3.40
2023-01-10T06:24:31.716Z,2.80
2023-01-10T06:26:59.060Z,3.60
2023-01-10T06:29:26.315Z,2.50
2023-01-10T06:31:53.583Z,2.80
2023-01-10T06:34:20.883Z,2.93
2023-01-10T06:36:48.264Z,2.80
2023-01-10T06:39:15.469Z,3.50
2023-01-10T06:41:42.720Z,3.23
2023-01-10T06:44:10.980Z,4.60
2023-01-10T06:46:38.395Z,2.73
2023-01-10T06:49:05.808Z,2.80
2023-01-10T06:51:33.166Z,3.30
2023-01-10T06:54:00.465Z,3.03
2023-01-10T06:56:27.783Z,3.60
2023-01-10T06:58:55.070Z,2.93
2023-01-10T07:01:22.900Z,3.00
2023-01-10T07:03:53.261Z,2.90
2023-01-10T07:06:21.298Z,3.23
2023-01-10T07:08:48.898Z,2.80
2023-01-10T07:11:17.801Z,3.40
2023-01-10T07:13:45.093Z,3.13
2023-01-10T07:16:14.288Z,2.80
2023-01-10T07:18:42.669Z,3.40
2023-01-10T07:21:11.106Z,3.10
2023-01-10T07:23:38.765Z,3.27
2023-01-10T07:26:07.186Z,2.70
2023-01-10T07:28:34.645Z,3.43
2023-01-10T07:31:02.773Z,2.63
2023-01-10T07:33:30.810Z,3.27
2023-01-10T07:35:58.450Z,2.57
2023-01-10T07:38:25.780Z,3.07
2023-01-10T07:40:52.997Z,3.27
2023-01-10T07:43:20.530Z,2.90
2023-01-10T07:45:47.865Z,2.97
2023-01-10T07:48:15.257Z,3.37
2023-01-10T07:50:42.553Z,3.40
2023-01-10T07:53:10.282Z,3.13
2023-01-10T07:55:39.868Z,3.20
2023-01-10T07:58:11.336Z,2.93
2023-01-10T08:00:38.961Z,3.03
2023-01-10T08:03:07.040Z,2.80
2023-01-10T08:05:34.617Z,2.60
2023-01-10T08:08:06.577Z,2.57
2023-01-10T08:10:34.892Z,2.40
2023-01-10T08:13:17.064Z,2.60
2023-01-10T08:15:47.273Z,2.50
2023-01-10T08:18:14.984Z,2.40
2023-01-10T08:20:42.692Z,2.27
2023-01-10T08:23:10.165Z,1.97
2023-01-10T08:25:39.525Z,2.37
2023-01-10T08:28:07.301Z,2.00
2023-01-10T08:30:34.497Z,2.00
2023-01-10T08:33:06.057Z,2.30
2023-01-10T08:35:42.986Z,2.30
2023-01-10T08:38:11.017Z,1.97
2023-01-10T08:40:38.362Z,2.13
2023-01-10T08:43:07.133Z,2.10
2023-01-10T08:45:35.356Z,2.43
2023-01-10T08:48:03.051Z,2.53
2023-01-10T08:50:30.541Z,2.70
2023-01-10T08:53:01.175Z,1.97
2023-01-10T08:55:29.024Z,2.23
2023-01-10T08:57:56.336Z,2.67
2023-01-10T09:00:23.798Z,2.57
2023-01-10T09:02:51.055Z,2.40
2023-01-10T09:05:26.696Z,2.40
2023-01-10T09:07:59.306Z,2.80
2023-01-10T09:10:26.864Z,2.63
2023-01-10T09:12:57.551Z,2.47
2023-01-10T09:15:26.034Z,2.40
2023-01-10T09:18:00.767Z,2.27
2023-01-10T09:20:28.970Z,2.47
2023-01-10T09:22:57.275Z,2.83
2023-01-10T09:25:25.265Z,2.00
2023-01-10T09:27:59.685Z,2.43
2023-01-10T09:30:27.838Z,2.60
2023-01-10T09:32:55.895Z,2.13
2023-01-10T09:35:23.738Z,2.63
2023-01-10T09:37:51.333Z,2.50
2023-01-10T09:40:20.913Z,2.50
2023-01-10T09:43:03.574Z,2.30
2023-01-10T09:45:43.083Z,2.53
2023-01-10T09:48:16.282Z,2.50
2023-01-10T09:51:06.716Z,2.37
2023-01-10T09:53:35.464Z,2.57
2023-01-10T09:56:04.245Z,2.07
2023-01-10T09:58:33.352Z,2.20
2023-01-10T10:01:02.512Z,2.30
2023-01-10T10:03:32.904Z,2.20
2023-01-10T10:06:11.234Z,2.37
2023-01-10T10:08:39.898Z,2.50
2023-01-10T10:11:11.115Z,2.27
2023-01-10T10:13:47.526Z,2.40
2023-01-10T10:16:14.849Z,2.33
2023-01-10T10:18:50.019Z,2.13
2023-01-10T10:21:27.844Z,2.47
2023-01-10T10:24:03.366Z,2.73
2023-01-10T10:26:34.540Z,2.23
2023-01-10T10:29:08.361Z,2.27
2023-01-10T10:31:41.884Z,2.37
2023-01-10T10:34:28.174Z,2.80
2023-01-10T10:36:56.360Z,2.73
2023-01-10T10:39:29.579Z,2.80
2023-01-10T10:41:57.163Z,2.30
2023-01-10T10:44:40.143Z,2.63
2023-01-10T10:47:30.036Z,3.10
2023-01-10T10:50:00.453Z,2.40
2023-01-10T10:52:32.932Z,2.73
2023-01-10T10:55:00.238Z,2.87
2023-01-10T10:57:32.453Z,2.20
2023-01-10T11:00:01.034Z,2.20
2023-01-10T11:02:30.579Z,2.13
2023-01-10T11:05:00.350Z,2.33
2023-01-10T11:07:30.275Z,1.93
2023-01-10T11:10:07.673Z,1.93
2023-01-10T11:12:36.444Z,2.07
2023-01-10T11:15:04.208Z,1.70
2023-01-10T11:17:32.320Z,1.80
2023-01-10T11:20:06.893Z,2.43
2023-01-10T11:22:45.045Z,2.00
2023-01-10T11:25:20.210Z,2.07
2023-01-10T11:27:50.523Z,1.90
2023-01-10T11:30:20.069Z,1.83
2023-01-10T11:32:53.317Z,2.03
2023-01-10T11:35:26.964Z,2.00
2023-01-10T11:38:00.926Z,2.23
2023-01-10T11:40:29.178Z,1.83
2023-01-10T11:42:59.388Z,2.27
2023-01-10T11:45:34.490Z,2.30
2023-01-10T11:48:20.319Z,2.20
2023-01-10T11:50:53.752Z,2.30
2023-01-10T11:53:41.763Z,2.03
2023-01-10T11:56:12.873Z,2.30
2023-01-10T11:58:40.813Z,2.07
2023-01-10T12:01:26.191Z,1.90
2023-01-10T12:03:53.874Z,2.00
2023-01-10T12:06:21.967Z,1.90
2023-01-10T12:08:51.486Z,1.77
2023-01-10T12:11:18.829Z,2.00
2023-01-10T12:13:53.754Z,1.97
2023-01-10T12:16:31.867Z,1.80
2023-01-10T12:19:00.502Z,1.80
2023-01-10T12:21:40.310Z,2.43
2023-01-10T12:24:15.264Z,2.00
2023-01-10T12:26:43.394Z,1.67
2023-01-10T12:29:16.712Z,1.97
2023-01-10T12:31:44.385Z,2.03
2023-01-10T12:34:15.832Z,2.00
2023-01-10T12:36:48.305Z,2.07
2023-01-10T12:39:34.093Z,1.50
2023-01-10T12:42:29.154Z,1.53
2023-01-10T12:45:15.833Z,1.70
2023-01-10T12:48:04.280Z,1.50
2023-01-10T12:50:40.383Z,1.40
2023-01-10T12:53:16.159Z,1.90
2023-01-10T12:55:45.616Z,1.60
2023-01-10T12:58:17.291Z,1.90
2023-01-10T13:00:48.519Z,1.43
2023-01-10T13:03:20.661Z,1.60
2023-01-10T13:05:49.869Z,1.93
2023-01-10T13:08:18.822Z,1.60
2023-01-10T13:10:47.136Z,2.00
2023-01-10T13:13:22.137Z,1.90
2023-01-10T13:15:55.097Z,1.60
2023-01-10T13:18:27.171Z,1.70
2023-01-10T13:21:09.068Z,1.80
2023-01-10T13:23:58.380Z,2.00
2023-01-10T13:26:26.746Z,1.90
2023-01-10T13:28:58.546Z,1.83
2023-01-10T13:31:33.956Z,1.70
2023-01-10T13:34:05.999Z,1.80
2023-01-10T13:36:44.388Z,1.37
2023-01-10T13:39:24.219Z,1.40
2023-01-10T13:42:16.222Z,1.70
2023-01-10T13:45:04.913Z,1.50
2023-01-10T13:47:43.410Z,1.60
2023-01-10T13:50:33.737Z,1.60
2023-01-10T13:53:04.447Z,1.80
2023-01-10T13:55:34.706Z,2.50
2023-01-10T13:58:14.590Z,3.60
2023-01-10T14:01:00.931Z,1.77
2023-01-10T14:03:39.158Z,3.67
2023-01-10T14:06:10.563Z,2.03
2023-01-10T14:08:38.441Z,12.80
2023-01-10T14:11:10.730Z,2.30
2023-01-10T14:13:38.435Z,2.23
2023-01-10T14:16:08.864Z,2.00
2023-01-10T14:18:42.502Z,1.90
2023-01-10T14:21:11.064Z,1.87
2023-01-10T14:23:41.140Z,1.60
2023-01-10T14:26:10.310Z,1.90
2023-01-10T14:28:37.607Z,1.50
2023-01-10T14:31:22.342Z,1.53
2023-01-10T14:33:50.126Z,1.70
2023-01-10T14:36:23.647Z,1.90
2023-01-10T14:38:51.347Z,1.53
2023-01-10T14:41:25.170Z,1.40
2023-01-10T14:44:00.335Z,1.87
2023-01-10T14:46:34.773Z,2.83
2023-01-10T14:49:02.156Z,1.50
2023-01-10T14:51:30.255Z,1.40
2023-01-10T14:54:02.833Z,1.50
2023-01-10T14:56:40.411Z,1.70
2023-01-10T14:59:28.014Z,1.57
2023-01-10T15:01:59.421Z,1.50
2023-01-10T15:04:28.464Z,1.83
2023-01-10T15:07:00.204Z,1.70
2023-01-10T15:09:30.851Z,1.80
2023-01-10T15:12:02.633Z,1.87
2023-01-10T15:14:30.122Z,1.40
2023-01-10T15:17:00.723Z,1.50
2023-01-10T15:19:30.350Z,1.50
2023-01-10T15:21:58.301Z,1.50
2023-01-10T15:24:33.766Z,1.60
2023-01-10T15:27:02.472Z,1.83
2023-01-10T15:29:29.985Z,1.87
2023-01-10T15:32:04.753Z,2.67
2023-01-10T15:34:32.299Z,3.87
2023-01-10T15:37:01.443Z,6.13
2023-01-10T15:39:33.416Z,5.00
2023-01-10T15:42:02.456Z,4.23
2023-01-10T15:44:53.320Z,4.17
2023-01-10T15:47:29.921Z,4.70
2023-01-10T15:49:58.311Z,5.30
2023-01-10T15:52:25.753Z,3.30
2023-01-10T15:54:57.439Z,2.80
2023-01-10T15:57:30.032Z,2.80
2023-01-10T15:59:59.047Z,3.57
2023-01-10T16:02:29.854Z,4.50
2023-01-10T16:04:58.811Z,2.10
2023-01-10T16:07:29.827Z,2.70
2023-01-10T16:10:07.847Z,2.23
2023-01-10T16:12:53.913Z,2.10
2023-01-10T16:15:23.650Z,2.13
2023-01-10T16:17:51.390Z,2.63
2023-01-10T16:20:19.919Z,2.10
2023-01-10T16:22:47.872Z,3.20
2023-01-10T16:25:35.500Z,4.10
2023-01-10T16:28:03.345Z,3.33
2023-01-10T16:30:32.210Z,3.10
2023-01-10T16:33:01.088Z,3.10
2023-01-10T16:35:28.345Z,3.53
2023-01-10T16:37:56.949Z,5.80
2023-01-10T16:40:36.429Z,6.70
2023-01-10T16:43:19.034Z,4.33
2023-01-10T16:45:47.125Z,2.47
2023-01-10T16:48:15.166Z,2.90
2023-01-10T16:50:43.047Z,3.23
2023-01-10T16:53:17.221Z,3.37
2023-01-10T16:55:46.245Z,4.13
2023-01-10T16:58:14.377Z,3.10
2023-01-10T17:00:42.639Z,2.97
2023-01-10T17:03:13.538Z,3.20
2023-01-10T17:05:40.861Z,3.53
2023-01-10T17:08:14.439Z,5.33
2023-01-10T17:10:41.873Z,4.17
2023-01-10T17:13:10.606Z,2.97
2023-01-10T17:15:38.056Z,3.50
2023-01-10T17:18:05.615Z,3.60
2023-01-10T17:20:33.134Z,3.53
2023-01-10T17:23:00.394Z,3.20
2023-01-10T17:25:28.762Z,4.80
2023-01-10T17:27:56.431Z,4.63
2023-01-10T17:30:23.963Z,4.30
2023-01-10T17:32:51.199Z,4.20
2023-01-10T17:35:18.987Z,3.80
2023-01-10T17:37:49.417Z,4.37
2023-01-10T17:40:16.700Z,4.50
2023-01-10T17:42:45.147Z,4.30
2023-01-10T17:45:12.831Z,3.33
2023-01-10T17:47:40.424Z,3.07
2023-01-10T17:50:09.080Z,3.40
2023-01-10T17:52:37.488Z,3.10
2023-01-10T17:55:06.546Z,3.50
2023-01-10T17:57:38.080Z,3.30
2023-01-10T18:00:06.151Z,3.13
2023-01-10T18:02:33.515Z,3.63
2023-01-10T18:05:01.353Z,3.20
2023-01-10T18:07:28.560Z,3.10
2023-01-10T18:09:58.050Z,3.60
2023-01-10T18:12:25.509Z,4.17
2023-01-10T18:14:52.836Z,3.23
2023-01-10T18:17:20.094Z,6.00
2023-01-10T18:19:47.985Z,8.07
2023-01-10T18:22:33.947Z,5.23
2023-01-10T18:25:01.176Z,5.10
2023-01-10T18:27:29.352Z,3.90
2023-01-10T18:29:56.754Z,3.60
2023-01-10T18:32:24.397Z,3.23
2023-01-10T18:34:52.179Z,3.60
2023-01-10T18:37:19.617Z,4.07
2023-01-10T18:39:48.079Z,4.70
2023-01-10T18:42:15.784Z,3.67
2023-01-10T18:44:43.057Z,3.90
2023-01-10T18:47:10.366Z,3.37
2023-01-10T18:49:37.678Z,2.77
2023-01-10T18:52:05.323Z,3.70
2023-01-10T18:54:32.579Z,3.20
2023-01-10T18:56:59.957Z,3.97
2023-01-10T18:59:27.200Z,4.17
2023-01-10T19:01:54.548Z,6.00
2023-01-10T19:04:21.995Z,4.93
2023-01-10T19:06:49.222Z,3.50
2023-01-10T19:09:16.752Z,3.90
2023-01-10T19:11:44.190Z,3.40
2023-01-10T19:14:11.627Z,4.73
2023-01-10T19:16:38.896Z,5.77
2023-01-10T19:19:09.200Z,4.90
2023-01-10T19:21:39.057Z,4.33
2023-01-10T19:24:08.089Z,4.70
2023-01-10T19:26:35.471Z,4.30
2023-01-10T19:29:04.002Z,4.00
2023-01-10T19:31:31.345Z,3.43
2023-01-10T19:33:59.357Z,2.60
2023-01-10T19:36:26.702Z,3.17
2023-01-10T19:38:55.696Z,4.20
2023-01-10T19:41:28.594Z,3.83
2023-01-10T19:43:59.604Z,3.50
2023-01-10T19:46:27.531Z,2.33
2023-01-10T19:48:58.084Z,2.70
2023-01-10T19:51:25.990Z,2.50
2023-01-10T19:53:53.821Z,2.70
2023-01-10T19:56:23.414Z,2.43
2023-01-10T19:58:51.308Z,2.60
2023-01-10T20:01:20.666Z,2.30
2023-01-10T20:03:48.373Z,2.70
2023-01-10T20:06:22.178Z,2.00
2023-01-10T20:08:50.193Z,2.60
2023-01-10T20:11:18.051Z,2.40
2023-01-10T20:13:46.896Z,2.17
2023-01-10T20:16:14.997Z,2.20
2023-01-10T20:18:42.840Z,1.77
2023-01-10T20:21:10.847Z,2.50
2023-01-10T20:23:39.365Z,3.40
2023-01-10T20:26:09.663Z,3.30
2023-01-10T20:28:37.255Z,2.20
2023-01-10T20:31:06.130Z,2.70
2023-01-10T20:33:34.655Z,2.50
2023-01-10T20:36:06.556Z,2.50
2023-01-10T20:38:34.953Z,2.20
2023-01-10T20:41:11.355Z,2.33
2023-01-10T20:43:39.239Z,2.87
2023-01-10T20:46:34.051Z,3.00
2023-01-10T20:49:02.994Z,2.57
2023-01-10T20:51:32.328Z,2.90
2023-01-10T20:54:00.058Z,2.50
2023-01-10T20:56:28.983Z,2.20
2023-01-10T20:58:56.826Z,2.10
2023-01-10T21:01:34.273Z,2.00
2023-01-10T21:04:03.633Z,2.30
2023-01-10T21:06:31.014Z,2.10
2023-01-10T21:08:58.488Z,2.57
2023-01-10T21:11:25.751Z,2.23
2023-01-10T21:13:53.461Z,2.50
2023-01-10T21:16:22.593Z,2.40
2023-01-10T21:18:50.861Z,3.87
2023-01-10T21:21:19.317Z,5.87
2023-01-10T21:23:46.729Z,3.47
2023-01-10T21:26:15.462Z,3.07
2023-01-10T21:28:46.446Z,2.90
2023-01-10T21:31:17.954Z,2.67
2023-01-10T21:33:45.829Z,4.30
2023-01-10T21:36:14.044Z,3.30
2023-01-10T21:38:41.809Z,2.70
2023-01-10T21:41:10.619Z,3.10
2023-01-10T21:43:38.874Z,3.10
2023-01-10T21:46:07.010Z,3.30
2023-01-10T21:48:34.484Z,3.67
2023-01-10T21:51:01.795Z,2.67
2023-01-10T21:53:29.147Z,3.87
2023-01-10T21:56:00.262Z,4.27
2023-01-10T21:58:27.683Z,3.80
2023-01-10T22:00:56.954Z,3.67
2023-01-10T22:03:24.310Z,4.77
2023-01-10T22:05:51.545Z,4.63
2023-01-10T22:08:18.839Z,3.30
2023-01-10T22:10:46.532Z,3.93
2023-01-10T22:13:13.745Z,2.60
2023-01-10T22:15:41.373Z,3.00
2023-01-10T22:18:09.379Z,3.33
2023-01-10T22:20:37.317Z,2.90
2023-01-10T22:23:04.574Z,2.70
2023-01-10T22:25:31.849Z,2.50
2023-01-10T22:27:59.094Z,3.03
2023-01-10T22:30:26.653Z,3.30
2023-01-10T22:32:56.197Z,3.30
2023-01-10T22:35:26.151Z,2.47
2023-01-10T22:37:56.970Z,2.97
2023-01-10T22:40:24.649Z,2.73
2023-01-10T22:42:54.839Z,2.80
2023-01-10T22:45:22.302Z,2.53
2023-01-10T22:47:50.483Z,2.90
2023-01-10T22:50:18.676Z,2.73
2023-01-10T22:52:49.222Z,2.60
2023-01-10T22:55:16.898Z,2.50
2023-01-10T22:57:47.999Z,3.00
2023-01-10T23:00:15.578Z,2.33
2023-01-10T23:02:43.179Z,2.27
2023-01-10T23:05:10.685Z,2.37
2023-01-10T23:07:37.958Z,2.83
2023-01-10T23:10:08.462Z,2.50
2023-01-10T23:12:39.640Z,2.60
2023-01-10T23:15:07.246Z,2.20
2023-01-10T23:17:34.533Z,2.40
2023-01-10T23:20:01.801Z,3.10
2023-01-10T23:22:29.293Z,2.73
2023-01-10T23:24:56.618Z,2.73
2023-01-10T23:27:23.923Z,2.73
2023-01-10T23:29:51.206Z,3.13
2023-01-10T23:32:18.586Z,2.70
2023-01-10T23:34:46.053Z,2.50
2023-01-10T23:37:13.758Z,2.93
2023-01-10T23:39:41.031Z,2.20
2023-01-10T23:42:08.272Z,2.50
2023-01-10T23:44:35.808Z,2.70
2023-01-10T23:47:03.022Z,2.30
2023-01-10T23:49:30.304Z,2.63
2023-01-10T23:51:57.996Z,2.23
2023-01-10T23:54:25.540Z,2.47
2023-01-10T23:56:53.892Z,2.40
2023-01-10T23:59:21.696Z,2.33
